createdAt,value
2023-05-09T00:00:57.044Z,12.91
2023-05-09T00:03:25.825Z,12.91
2023-05-09T00:05:53.959Z,12.92
2023-05-09T00:08:23.437Z,12.90
2023-05-09T00:10:52.641Z,12.88
2023-05-09T00:13:21.100Z,12.84
2023-05-09T00:15:54.126Z,12.80
2023-05-09T00:18:22.475Z,12.73
2023-05-09T00:20:51.495Z,12.67
2023-05-09T00:23:20.337Z,12.61
2023-05-09T00:25:49.963Z,12.54
2023-05-09T00:28:18.155Z,12.46
2023-05-09T00:30:46.649Z,12.40
2023-05-09T00:33:14.858Z,12.34
2023-05-09T00:35:43.711Z,12.27
2023-05-09T00:38:14.178Z,12.21
2023-05-09T00:40:42.699Z,12.17
2023-05-09T00:43:12.216Z,12.15
2023-05-09T00:45:40.458Z,12.16
2023-05-09T00:48:08.776Z,12.26
2023-05-09T00:50:37.830Z,12.34
2023-05-09T00:53:06.764Z,12.37
2023-05-09T00:55:34.997Z,12.40
2023-05-09T00:58:04.996Z,12.39
2023-05-09T01:00:34.428Z,12.36
2023-05-09T01:03:03.866Z,12.30
2023-05-09T01:05:43.181Z,12.24
2023-05-09T01:08:19.231Z,12.25
2023-05-09T01:10:58.312Z,12.21
2023-05-09T01:13:33.367Z,12.14
2023-05-09T01:16:09.369Z,12.09
2023-05-09T01:18:44.439Z,12.07
2023-05-09T01:21:17.071Z,12.04
2023-05-09T01:24:08.480Z,11.98
2023-05-09T01:26:48.300Z,11.93
2023-05-09T01:29:35.544Z,11.88
2023-05-09T01:32:09.935Z,11.88
2023-05-09T01:34:42.217Z,11.86
2023-05-09T01:37:12.293Z,11.82
2023-05-09T01:39:43.336Z,11.78
2023-05-09T01:42:12.652Z,11.72
2023-05-09T01:44:44.548Z,11.67
2023-05-09T01:47:13.295Z,11.64
2023-05-09T01:49:43.985Z,11.62
2023-05-09T01:52:16.653Z,11.60
2023-05-09T01:54:46.838Z,11.57
2023-05-09T01:57:20.365Z,11.50
2023-05-09T01:59:52.751Z,11.46
2023-05-09T02:02:22.118Z,11.43
2023-05-09T02:04:51.696Z,11.39
2023-05-09T02:07:20.904Z,11.38
2023-05-09T02:09:52.436Z,11.39
2023-05-09T02:12:20.741Z,11.33
2023-05-09T02:14:51.435Z,11.30
2023-05-09T02:17:19.673Z,11.25
2023-05-09T02:19:48.431Z,11.20
2023-05-09T02:22:17.111Z,11.17
2023-05-09T02:24:46.331Z,11.12
2023-05-09T02:27:15.613Z,11.10
2023-05-09T02:29:47.108Z,11.08
2023-05-09T02:32:19.768Z,11.05
2023-05-09T02:34:50.103Z,11.01
2023-05-09T02:37:20.956Z,10.98
2023-05-09T02:39:49.502Z,10.93
2023-05-09T02:42:22.151Z,10.87
2023-05-09T02:44:50.768Z,10.82
2023-05-09T02:47:21.437Z,10.79
2023-05-09T02:49:51.737Z,10.74
2023-05-09T02:52:20.077Z,10.72
2023-05-09T02:54:49.007Z,10.69
2023-05-09T02:57:17.231Z,10.65
2023-05-09T02:59:47.054Z,10.63
2023-05-09T03:02:15.485Z,10.60
2023-05-09T03:04:46.071Z,10.56
2023-05-09T03:07:14.575Z,10.54
2023-05-09T03:09:42.935Z,10.53
2023-05-09T03:12:11.264Z,10.54
2023-05-09T03:14:39.615Z,10.58
2023-05-09T03:17:07.791Z,10.60
2023-05-09T03:19:37.453Z,10.61
2023-05-09T03:22:07.865Z,10.59
2023-05-09T03:24:41.579Z,10.62
2023-05-09T03:27:14.255Z,10.61
2023-05-09T03:29:42.741Z,10.61
2023-05-09T03:32:13.384Z,10.61
2023-05-09T03:34:43.455Z,10.56
2023-05-09T03:37:13.332Z,10.51
2023-05-09T03:39:42.594Z,10.52
2023-05-09T03:42:14.038Z,10.63
2023-05-09T03:44:43.768Z,10.67
2023-05-09T03:47:12.044Z,10.73
2023-05-09T03:49:41.753Z,10.75
2023-05-09T03:52:13.028Z,10.80
2023-05-09T03:54:41.913Z,10.84
2023-05-09T03:57:10.000Z,10.85
2023-05-09T03:59:39.133Z,10.88
2023-05-09T04:02:10.014Z,10.88
2023-05-09T04:04:38.651Z,10.90
2023-05-09T04:07:07.363Z,10.91
2023-05-09T04:09:42.337Z,10.94
2023-05-09T04:12:10.544Z,11.00
2023-05-09T04:17:14.613Z,11.07
2023-05-09T04:19:42.898Z,11.16
2023-05-09T04:22:11.269Z,11.27
2023-05-09T04:24:40.078Z,11.39
2023-05-09T04:27:08.385Z,11.48
2023-05-09T04:29:39.020Z,11.61
2023-05-09T04:32:07.212Z,11.72
2023-05-09T04:34:37.886Z,11.81
2023-05-09T04:37:13.869Z,11.96
2023-05-09T04:39:43.566Z,12.07
2023-05-09T04:42:19.203Z,12.21
2023-05-09T04:44:47.902Z,12.32
2023-05-09T04:47:16.525Z,12.44
2023-05-09T04:49:46.066Z,12.55
2023-05-09T04:52:14.518Z,12.69
2023-05-09T04:54:44.940Z,12.84
2023-05-09T04:57:18.262Z,12.91
2023-05-09T04:59:53.042Z,13.04
2023-05-09T05:02:22.426Z,13.17
2023-05-09T05:05:00.127Z,13.20
2023-05-09T05:07:38.228Z,13.26
2023-05-09T05:10:12.021Z,13.30
2023-05-09T05:12:42.583Z,13.36
2023-05-09T05:15:14.193Z,13.39
2023-05-09T05:17:45.376Z,13.50
2023-05-09T05:20:15.586Z,13.56
2023-05-09T05:22:46.645Z,13.69
2023-05-09T05:25:17.817Z,13.74
2023-05-09T05:27:48.624Z,13.88
2023-05-09T05:30:17.539Z,13.93
2023-05-09T05:32:45.792Z,14.04
2023-05-09T05:35:19.579Z,14.09
2023-05-09T05:37:49.147Z,14.14
2023-05-09T05:40:18.270Z,14.27
2023-05-09T05:42:49.465Z,14.33
2023-05-09T05:45:18.263Z,14.46
2023-05-09T05:47:51.184Z,14.43
2023-05-09T05:50:21.385Z,14.48
2023-05-09T05:52:49.483Z,14.56
2023-05-09T05:55:19.833Z,14.52
2023-05-09T05:57:48.663Z,14.49
2023-05-09T06:00:18.031Z,14.59
2023-05-09T06:02:51.234Z,14.56
2023-05-09T06:05:29.712Z,14.40
2023-05-09T06:07:58.141Z,14.42
2023-05-09T06:10:26.230Z,14.40
2023-05-09T06:12:54.323Z,14.62
2023-05-09T06:15:24.042Z,14.64
2023-05-09T06:17:52.391Z,14.78
2023-05-09T06:20:20.942Z,14.91
2023-05-09T06:22:50.426Z,15.11
2023-05-09T06:25:18.633Z,15.11
2023-05-09T06:27:47.068Z,15.01
2023-05-09T06:30:25.789Z,15.17
2023-05-09T06:32:58.290Z,15.13
2023-05-09T06:35:26.530Z,15.03
2023-05-09T06:37:56.013Z,15.06
2023-05-09T06:40:24.200Z,15.01
2023-05-09T06:42:52.475Z,14.99
2023-05-09T06:45:21.978Z,15.02
2023-05-09T06:47:50.311Z,15.15
2023-05-09T06:50:18.506Z,15.21
2023-05-09T06:52:46.586Z,15.27
2023-05-09T06:55:18.390Z,15.53
2023-05-09T06:57:46.585Z,15.32
2023-05-09T07:00:17.805Z,15.31
2023-05-09T07:02:46.697Z,15.27
2023-05-09T07:05:16.245Z,15.57
2023-05-09T07:07:44.497Z,15.57
2023-05-09T07:10:13.552Z,15.79
2023-05-09T07:12:43.111Z,15.94
2023-05-09T07:15:14.643Z,16.18
2023-05-09T07:17:45.031Z,16.34
2023-05-09T07:20:13.653Z,16.50
2023-05-09T07:22:41.855Z,16.27
2023-05-09T07:25:12.587Z,16.36
2023-05-09T07:27:42.326Z,16.41
2023-05-09T07:30:11.172Z,16.32
2023-05-09T07:32:39.313Z,16.26
2023-05-09T07:35:08.096Z,16.20
2023-05-09T07:37:36.714Z,16.31
2023-05-09T07:40:06.202Z,16.33
2023-05-09T07:42:34.595Z,16.57
2023-05-09T07:45:06.111Z,16.76
2023-05-09T07:47:39.287Z,17.06
2023-05-09T07:50:08.482Z,17.41
2023-05-09T07:52:36.692Z,17.36
2023-05-09T07:55:05.327Z,17.07
2023-05-09T07:57:33.609Z,17.21
2023-05-09T08:00:01.815Z,16.90
2023-05-09T08:02:32.831Z,17.42
2023-05-09T08:05:01.071Z,17.50
2023-05-09T08:07:29.176Z,17.32
2023-05-09T08:09:57.608Z,17.33
2023-05-09T08:12:25.740Z,17.69
2023-05-09T08:14:56.649Z,17.84
2023-05-09T08:17:25.041Z,18.30
2023-05-09T08:19:56.640Z,18.52
2023-05-09T08:22:27.283Z,18.72
2023-05-09T08:24:55.409Z,18.64
2023-05-09T08:27:23.907Z,18.53
2023-05-09T08:29:52.086Z,18.40
2023-05-09T08:32:20.953Z,18.36
2023-05-09T08:34:49.065Z,18.10
2023-05-09T08:37:19.016Z,18.49
2023-05-09T08:39:47.329Z,18.61
2023-05-09T08:42:20.143Z,18.98
2023-05-09T08:44:48.237Z,19.00
2023-05-09T08:47:17.093Z,18.96
2023-05-09T08:49:49.458Z,19.05
2023-05-09T08:52:21.877Z,18.90
2023-05-09T08:54:50.360Z,18.71
2023-05-09T08:57:18.567Z,19.01
2023-05-09T08:59:47.110Z,19.01
2023-05-09T09:02:17.894Z,18.92
2023-05-09T09:04:49.245Z,18.81
2023-05-09T09:07:18.475Z,18.50
2023-05-09T09:09:50.647Z,18.17
2023-05-09T09:12:19.586Z,18.05
2023-05-09T09:18:19.788Z,17.89
2023-05-09T09:20:52.200Z,17.73
2023-05-09T09:23:21.888Z,17.91
2023-05-09T09:26:00.078Z,18.03
2023-05-09T09:28:36.780Z,17.92
2023-05-09T09:31:20.942Z,17.89
2023-05-09T09:33:51.196Z,17.88
2023-05-09T09:36:37.166Z,18.10
2023-05-09T09:39:06.919Z,18.38
2023-05-09T09:41:36.261Z,18.81
2023-05-09T09:44:08.509Z,18.73
2023-05-09T09:46:44.876Z,18.54
2023-05-09T09:49:18.543Z,18.67
2023-05-09T09:51:46.812Z,18.86
2023-05-09T09:54:16.181Z,18.51
2023-05-09T09:56:46.816Z,18.50
2023-05-09T09:59:16.365Z,18.60
2023-05-09T10:01:56.150Z,18.69
2023-05-09T10:04:30.390Z,18.91
2023-05-09T10:06:59.817Z,19.15
2023-05-09T10:09:29.322Z,18.95
2023-05-09T10:11:58.516Z,19.02
2023-05-09T10:14:27.648Z,18.96
2023-05-09T10:16:57.737Z,19.07
2023-05-09T10:19:29.739Z,19.81
2023-05-09T10:22:06.116Z,20.36
2023-05-09T10:24:41.850Z,20.39
2023-05-09T10:27:12.152Z,20.37
2023-05-09T10:29:45.748Z,20.31
2023-05-09T10:32:20.807Z,20.94
2023-05-09T10:34:53.977Z,20.96
2023-05-09T10:37:22.859Z,21.33
2023-05-09T10:39:53.577Z,21.27
2023-05-09T10:42:25.227Z,21.82
2023-05-09T10:44:54.249Z,22.21
2023-05-09T10:47:23.352Z,21.88
2023-05-09T10:49:53.344Z,22.19
2023-05-09T10:52:26.807Z,21.63
2023-05-09T10:55:02.507Z,21.90
2023-05-09T10:57:33.371Z,22.37
2023-05-09T11:00:01.598Z,22.80
2023-05-09T11:02:32.355Z,23.24
2023-05-09T11:05:18.423Z,22.65
2023-05-09T11:07:46.761Z,23.37
2023-05-09T11:10:17.685Z,23.36
2023-05-09T11:12:57.999Z,23.62
2023-05-09T11:15:27.715Z,23.34
2023-05-09T11:18:07.497Z,22.37
2023-05-09T11:20:44.594Z,22.13
2023-05-09T11:23:12.874Z,22.63
2023-05-09T11:25:43.815Z,23.53
2023-05-09T11:28:12.331Z,23.94
2023-05-09T11:30:42.659Z,23.79
2023-05-09T11:33:24.341Z,23.62
2023-05-09T11:36:18.670Z,23.36
2023-05-09T11:38:48.074Z,23.01
2023-05-09T11:41:18.724Z,22.94
2023-05-09T11:43:46.981Z,22.00
2023-05-09T11:46:15.414Z,21.53
2023-05-09T11:48:43.580Z,22.05
2023-05-09T11:51:19.171Z,21.61
2023-05-09T11:53:54.129Z,21.43
2023-05-09T11:56:24.017Z,21.09
2023-05-09T11:58:53.325Z,21.39
2023-05-09T12:01:21.610Z,21.15
2023-05-09T12:03:50.561Z,20.97
2023-05-09T12:06:21.043Z,21.21
2023-05-09T12:08:49.747Z,21.65
2023-05-09T12:11:18.494Z,21.71
2023-05-09T12:13:50.873Z,21.58
2023-05-09T12:16:20.036Z,21.91
2023-05-09T12:18:49.687Z,21.86
2023-05-09T12:21:18.506Z,21.77
2023-05-09T12:23:51.532Z,21.86
2023-05-09T12:26:20.745Z,21.64
2023-05-09T12:28:49.634Z,21.33
2023-05-09T12:31:18.641Z,21.38
2023-05-09T12:33:46.991Z,21.31
2023-05-09T12:36:16.102Z,21.23
2023-05-09T12:38:54.965Z,20.88
2023-05-09T12:41:37.153Z,20.83
2023-05-09T12:44:07.821Z,20.69
2023-05-09T12:46:37.554Z,20.89
2023-05-09T12:49:06.081Z,20.64
2023-05-09T12:51:36.702Z,20.43
2023-05-09T12:54:10.991Z,20.25
2023-05-09T12:56:40.512Z,20.53
2023-05-09T12:59:14.868Z,20.53
2023-05-09T13:01:43.206Z,20.50
2023-05-09T13:04:12.782Z,20.71
2023-05-09T13:06:49.975Z,20.97
2023-05-09T13:09:19.895Z,20.95
2023-05-09T13:11:48.789Z,21.15
2023-05-09T13:14:16.979Z,21.28
2023-05-09T13:16:46.268Z,21.61
2023-05-09T13:19:14.551Z,21.63
2023-05-09T13:21:42.648Z,21.72
2023-05-09T13:24:10.733Z,21.82
2023-05-09T13:26:40.312Z,21.89
2023-05-09T13:29:11.112Z,22.25
2023-05-09T13:31:39.266Z,21.69
2023-05-09T13:34:07.487Z,22.11
2023-05-09T13:36:35.659Z,22.12
2023-05-09T13:39:03.796Z,22.21
2023-05-09T13:41:34.266Z,21.64
2023-05-09T13:44:06.937Z,21.87
2023-05-09T13:46:35.096Z,22.12
2023-05-09T13:49:03.170Z,22.21
2023-05-09T13:51:31.273Z,22.42
2023-05-09T13:53:59.494Z,22.96
2023-05-09T13:56:27.664Z,22.82
2023-05-09T13:58:55.709Z,22.88
2023-05-09T14:01:25.600Z,22.22
2023-05-09T14:03:54.163Z,22.39
2023-05-09T14:06:22.391Z,22.64
2023-05-09T14:08:50.466Z,22.21
2023-05-09T14:11:21.526Z,22.67
2023-05-09T14:13:49.620Z,23.04
2023-05-09T14:19:15.270Z,22.35
2023-05-09T14:21:47.979Z,22.20
2023-05-09T14:24:18.201Z,22.09
2023-05-09T14:26:46.792Z,21.65
2023-05-09T14:29:15.140Z,21.48
2023-05-09T14:31:45.933Z,21.27
2023-05-09T14:34:15.755Z,21.31
2023-05-09T14:36:43.784Z,21.41
2023-05-09T14:39:11.853Z,21.23
2023-05-09T14:41:42.058Z,21.32
2023-05-09T14:44:10.167Z,21.11
2023-05-09T14:46:38.301Z,21.32
2023-05-09T14:49:06.753Z,20.99
2023-05-09T14:51:36.355Z,20.76
2023-05-09T14:54:04.808Z,20.21
2023-05-09T14:56:35.529Z,20.32
2023-05-09T14:59:04.406Z,20.54
2023-05-09T15:01:34.169Z,20.43
2023-05-09T15:04:02.783Z,20.49
2023-05-09T15:06:31.037Z,20.50
2023-05-09T15:09:00.493Z,20.28
2023-05-09T15:11:39.752Z,20.32
2023-05-09T15:14:15.107Z,20.42
2023-05-09T15:16:43.503Z,20.58
2023-05-09T15:19:11.691Z,20.54
2023-05-09T15:21:39.847Z,20.39
2023-05-09T15:24:09.775Z,20.50
2023-05-09T15:26:40.731Z,20.62
2023-05-09T15:29:11.334Z,20.67
2023-05-09T15:31:39.561Z,20.64
2023-05-09T15:34:08.749Z,20.60
2023-05-09T15:36:37.653Z,20.51
2023-05-09T15:39:10.042Z,20.66
2023-05-09T15:41:38.320Z,20.28
2023-05-09T15:44:07.323Z,20.23
2023-05-09T15:46:36.029Z,20.25
2023-05-09T15:49:04.325Z,20.35
2023-05-09T15:51:32.618Z,20.24
2023-05-09T15:54:00.749Z,20.06
2023-05-09T15:56:30.297Z,20.25
2023-05-09T15:58:59.408Z,19.96
2023-05-09T16:01:30.612Z,20.12
2023-05-09T16:03:59.213Z,20.27
2023-05-09T16:06:28.557Z,20.08
2023-05-09T16:08:57.231Z,20.15
2023-05-09T16:11:25.375Z,20.16
2023-05-09T16:13:55.322Z,20.25
2023-05-09T16:16:23.531Z,20.02
2023-05-09T16:18:51.793Z,20.06
2023-05-09T16:21:21.579Z,20.11
2023-05-09T16:23:52.056Z,20.03
2023-05-09T16:26:22.641Z,20.15
2023-05-09T16:28:50.802Z,20.11
2023-05-09T16:31:20.837Z,20.05
2023-05-09T16:33:49.405Z,19.98
2023-05-09T16:36:17.501Z,20.02
2023-05-09T16:38:45.779Z,19.86
2023-05-09T16:41:14.009Z,19.83
2023-05-09T16:43:44.352Z,19.74
2023-05-09T16:46:12.546Z,19.68
2023-05-09T16:48:42.031Z,19.61
2023-05-09T16:51:10.158Z,19.46
2023-05-09T16:53:38.329Z,19.47
2023-05-09T16:56:07.902Z,19.48
2023-05-09T16:58:36.814Z,19.34
2023-05-09T17:01:05.693Z,19.19
2023-05-09T17:03:34.277Z,19.10
2023-05-09T17:06:07.503Z,19.14
2023-05-09T17:08:35.884Z,19.05
2023-05-09T17:11:04.545Z,19.03
2023-05-09T17:13:32.770Z,19.01
2023-05-09T17:16:01.349Z,18.90
2023-05-09T17:18:37.650Z,18.89
2023-05-09T17:21:07.874Z,18.80
2023-05-09T17:23:36.072Z,18.77
2023-05-09T17:26:05.017Z,18.64
2023-05-09T17:28:33.244Z,18.63
2023-05-09T17:31:01.768Z,18.41
2023-05-09T17:33:32.172Z,18.27
2023-05-09T17:36:00.710Z,18.20
2023-05-09T17:38:30.261Z,18.05
2023-05-09T17:40:58.828Z,17.85
2023-05-09T17:43:28.441Z,17.60
2023-05-09T17:45:56.914Z,17.47
2023-05-09T17:48:25.044Z,17.32
2023-05-09T17:50:53.281Z,17.05
2023-05-09T17:53:21.909Z,16.77
2023-05-09T17:55:51.685Z,16.63
2023-05-09T17:58:21.000Z,16.35
2023-05-09T18:00:49.030Z,16.06
2023-05-09T18:03:17.658Z,15.87
2023-05-09T18:05:46.237Z,15.74
2023-05-09T18:08:14.409Z,15.59
2023-05-09T18:10:42.812Z,15.47
2023-05-09T18:13:12.559Z,15.39
2023-05-09T18:15:41.229Z,15.28
2023-05-09T18:18:10.229Z,15.18
2023-05-09T18:20:40.093Z,15.14
2023-05-09T18:23:08.738Z,14.96
2023-05-09T18:25:38.640Z,14.76
2023-05-09T18:28:13.550Z,14.46
2023-05-09T18:30:41.850Z,14.43
2023-05-09T18:33:10.545Z,14.35
2023-05-09T18:35:44.249Z,14.20
2023-05-09T18:38:14.906Z,14.17
2023-05-09T18:40:44.196Z,14.12
2023-05-09T18:43:13.930Z,14.07
2023-05-09T18:45:45.073Z,14.07
2023-05-09T18:48:13.848Z,14.17
2023-05-09T18:50:41.946Z,14.17
2023-05-09T18:53:13.182Z,14.13
2023-05-09T18:55:42.776Z,14.12
2023-05-09T18:58:11.079Z,13.89
2023-05-09T19:00:40.978Z,13.87
2023-05-09T19:03:09.322Z,13.87
2023-05-09T19:05:37.643Z,13.84
2023-05-09T19:08:06.429Z,13.86
2023-05-09T19:10:36.114Z,13.87
2023-05-09T19:13:07.329Z,13.90
2023-05-09T19:15:40.144Z,13.86
2023-05-09T19:20:17.083Z,13.72
2023-05-09T19:22:48.309Z,13.74
2023-05-09T19:25:16.689Z,13.71
2023-05-09T19:27:45.154Z,13.71
2023-05-09T19:30:15.260Z,13.74
2023-05-09T19:32:44.094Z,13.72
2023-05-09T19:35:12.666Z,13.77
2023-05-09T19:37:42.373Z,13.72
2023-05-09T19:40:11.562Z,13.76
2023-05-09T19:42:41.838Z,13.74
2023-05-09T19:45:11.383Z,13.72
2023-05-09T19:47:39.647Z,13.69
2023-05-09T19:50:09.109Z,13.66
2023-05-09T19:52:39.946Z,13.65
2023-05-09T19:55:10.646Z,13.64
2023-05-09T19:57:38.933Z,13.59
2023-05-09T20:00:08.380Z,13.59
2023-05-09T20:02:37.139Z,13.60
2023-05-09T20:05:06.054Z,13.60
2023-05-09T20:07:34.264Z,13.62
2023-05-09T20:10:02.607Z,13.63
2023-05-09T20:12:36.976Z,13.65
2023-05-09T20:15:06.800Z,13.56
2023-05-09T20:17:35.428Z,13.65
2023-05-09T20:20:04.182Z,13.66
2023-05-09T20:22:32.773Z,13.66
2023-05-09T20:25:03.114Z,13.64
2023-05-09T20:27:31.351Z,13.65
2023-05-09T20:30:01.756Z,13.60
2023-05-09T20:32:32.835Z,13.64
2023-05-09T20:35:01.382Z,13.65
2023-05-09T20:37:29.731Z,13.66
2023-05-09T20:39:57.904Z,13.65
2023-05-09T20:42:26.294Z,13.64
2023-05-09T20:44:55.236Z,13.65
2023-05-09T20:47:27.732Z,13.63
2023-05-09T20:49:58.111Z,13.61
2023-05-09T20:52:28.999Z,13.60
2023-05-09T20:54:57.347Z,13.60
2023-05-09T20:57:25.546Z,13.62
2023-05-09T20:59:53.738Z,13.59
2023-05-09T21:02:22.010Z,13.59
2023-05-09T21:04:51.603Z,13.57
2023-05-09T21:07:20.420Z,13.58
2023-05-09T21:09:49.708Z,13.53
2023-05-09T21:12:21.160Z,13.48
2023-05-09T21:14:50.698Z,13.46
2023-05-09T21:17:19.068Z,13.47
2023-05-09T21:19:51.711Z,13.46
2023-05-09T21:22:21.569Z,13.47
2023-05-09T21:24:52.344Z,13.37
2023-05-09T21:27:20.687Z,13.45
2023-05-09T21:29:51.680Z,13.46
2023-05-09T21:32:19.958Z,13.44
2023-05-09T21:34:48.834Z,13.48
2023-05-09T21:37:17.274Z,13.45
2023-05-09T21:42:32.778Z,13.42
2023-05-09T21:45:03.991Z,13.45
2023-05-09T21:47:32.700Z,13.45
2023-05-09T21:50:01.342Z,13.38
2023-05-09T21:52:30.037Z,13.34
2023-05-09T21:55:02.547Z,13.31
2023-05-09T21:57:30.712Z,13.32
2023-05-09T22:00:01.281Z,13.36
2023-05-09T22:02:30.000Z,13.37
2023-05-09T22:04:58.413Z,13.26
2023-05-09T22:07:26.602Z,13.22
2023-05-09T22:09:54.714Z,13.19
2023-05-09T22:12:24.253Z,13.15
2023-05-09T22:14:56.441Z,13.00
2023-05-09T22:17:25.263Z,12.90
2023-05-09T22:19:53.627Z,12.82
2023-05-09T22:22:24.113Z,12.73
2023-05-09T22:24:52.292Z,12.67
2023-05-09T22:27:20.981Z,12.54
2023-05-09T22:29:52.779Z,12.56
2023-05-09T22:32:21.333Z,12.48
2023-05-09T22:34:49.549Z,12.39
2023-05-09T22:37:17.747Z,12.37
2023-05-09T22:39:47.480Z,12.35
2023-05-09T22:42:16.109Z,12.28
2023-05-09T22:44:44.389Z,12.24
2023-05-09T22:47:13.927Z,12.17
2023-05-09T22:49:43.566Z,12.10
2023-05-09T22:52:12.988Z,12.07
2023-05-09T22:54:41.605Z,12.11
2023-05-09T22:57:10.723Z,12.04
2023-05-09T23:00:01.397Z,12.00
2023-05-09T23:02:31.242Z,11.99
2023-05-09T23:04:59.476Z,11.98
2023-05-09T23:07:27.790Z,11.89
2023-05-09T23:09:56.054Z,11.88
2023-05-09T23:12:26.438Z,11.82
2023-05-09T23:14:54.671Z,11.80
2023-05-09T23:17:23.074Z,11.79
2023-05-09T23:19:52.561Z,11.77
2023-05-09T23:22:20.688Z,11.74
2023-05-09T23:24:48.984Z,11.72
2023-05-09T23:27:17.053Z,11.70
2023-05-09T23:29:47.561Z,11.69
2023-05-09T23:32:15.800Z,11.66
2023-05-09T23:34:44.013Z,11.62
2023-05-09T23:37:14.268Z,11.62
2023-05-09T23:39:42.536Z,11.61
2023-05-09T23:42:10.912Z,11.62
2023-05-09T23:44:39.423Z,11.63
2023-05-09T23:47:07.501Z,11.61
2023-05-09T23:49:35.702Z,11.62
2023-05-09T23:52:04.062Z,11.61
2023-05-09T23:54:33.540Z,11.60
2023-05-09T23:57:01.845Z,11.63
2023-05-09T23:59:32.977Z,11.62
